createdAt,value
2023-01-12T00:00:37.111Z,8.17
2023-01-12T00:01:36.997Z,8.14
2023-01-12T00:02:37.161Z,8.18
2023-01-12T00:03:36.933Z,8.2
2023-01-12T00:04:37.268Z,8.14
2023-01-12T00:05:36.919Z,8.18
2023-01-12T00:06:36.957Z,8.2
2023-01-12T00:07:36.912Z,8.14
2023-01-12T00:08:39.964Z,8.21
2023-01-12T00:09:36.959Z,8.17
2023-01-12T00:10:36.905Z,8.28
2023-01-12T00:11:36.958Z,8.2
2023-01-12T00:12:36.925Z,8.24
2023-01-12T00:13:36.936Z,8.32
2023-01-12T00:14:36.973Z,8.23
2023-01-12T00:15:36.926Z,8.21
2023-01-12T00:16:37.023Z,8.23
2023-01-12T00:17:36.949Z,8.31
2023-01-12T00:18:36.939Z,8.21
2023-01-12T00:19:40.033Z,8.31
2023-01-12T00:20:36.924Z,8.26
2023-01-12T00:21:36.930Z,8.28
2023-01-12T00:22:36.960Z,8.28
2023-01-12T00:23:37.065Z,8.24
2023-01-12T00:24:36.977Z,8.36
2023-01-12T00:25:36.971Z,8.42
2023-01-12T00:26:36.961Z,8.35
2023-01-12T00:27:36.961Z,8.39
2023-01-12T00:28:39.161Z,8.39
2023-01-12T00:29:36.969Z,8.39
2023-01-12T00:30:40.093Z,8.49
2023-01-12T00:31:37.218Z,8.39
2023-01-12T00:32:36.975Z,8.49
2023-01-12T00:33:36.984Z,8.49
2023-01-12T00:34:37.131Z,8.45
2023-01-12T00:35:36.946Z,8.49
2023-01-12T00:36:36.953Z,8.54
2023-01-12T00:37:36.949Z,8.54
2023-01-12T00:38:37.013Z,8.57
2023-01-12T00:39:40.336Z,8.61
2023-01-12T00:40:37.030Z,8.61
2023-01-12T00:41:39.966Z,8.53
2023-01-12T00:42:36.982Z,8.5
2023-01-12T00:43:36.965Z,8.64
2023-01-12T00:44:36.970Z,8.66
2023-01-12T00:45:36.998Z,8.66
2023-01-12T00:46:37.048Z,8.63
2023-01-12T00:47:37.065Z,8.69
2023-01-12T00:48:36.983Z,8.71
2023-01-12T00:49:36.997Z,8.66
2023-01-12T00:50:37.034Z,8.59
2023-01-12T00:51:37.002Z,8.69
2023-01-12T00:52:40.035Z,8.69
2023-01-12T00:53:36.982Z,8.68
2023-01-12T00:54:37.036Z,8.69
2023-01-12T00:55:36.999Z,8.74
2023-01-12T00:56:37.002Z,8.74
2023-01-12T00:57:37.040Z,8.75
2023-01-12T00:58:37.010Z,8.77
2023-01-12T00:59:36.980Z,8.77
2023-01-12T01:00:37.038Z,8.75
2023-01-12T01:01:37.558Z,8.72
2023-01-12T01:02:37.143Z,8.74
2023-01-12T01:03:40.180Z,8.75
2023-01-12T01:04:37.016Z,8.78
2023-01-12T01:05:37.066Z,8.81
2023-01-12T01:06:37.011Z,8.72
2023-01-12T01:07:37.032Z,8.74
2023-01-12T01:08:36.993Z,8.77
2023-01-12T01:09:40.199Z,8.82
2023-01-12T01:10:37.027Z,8.72
2023-01-12T01:11:36.999Z,8.71
2023-01-12T01:12:37.196Z,8.84
2023-01-12T01:13:37.008Z,8.79
2023-01-12T01:14:37.013Z,8.81
2023-01-12T01:15:37.160Z,8.84
2023-01-12T01:16:37.052Z,8.82
2023-01-12T01:17:37.017Z,8.77
2023-01-12T01:18:37.038Z,8.81
2023-01-12T01:19:37.050Z,8.87
2023-01-12T01:20:37.041Z,8.81
2023-01-12T01:21:37.092Z,8.81
2023-01-12T01:22:37.029Z,8.86
2023-01-12T01:23:37.049Z,8.82
2023-01-12T01:24:37.011Z,8.82
2023-01-12T01:25:37.152Z,8.87
2023-01-12T01:26:37.025Z,8.9
2023-01-12T01:27:37.027Z,8.79
2023-01-12T01:28:37.070Z,8.86
2023-01-12T01:29:37.025Z,8.69
2023-01-12T01:30:37.075Z,8.72
2023-01-12T01:31:37.189Z,8.72
2023-01-12T01:32:37.059Z,8.81
2023-01-12T01:33:37.042Z,8.9
2023-01-12T01:34:37.056Z,8.87
2023-01-12T01:35:39.913Z,8.81
2023-01-12T01:36:37.076Z,8.84
2023-01-12T01:37:37.064Z,8.82
2023-01-12T01:38:37.050Z,8.87
2023-01-12T01:39:37.042Z,8.84
2023-01-12T01:40:37.082Z,8.84
2023-01-12T01:41:37.122Z,8.75
2023-01-12T01:42:37.055Z,8.87
2023-01-12T01:43:40.051Z,8.78
2023-01-12T01:44:37.068Z,8.71
2023-01-12T01:45:37.068Z,8.81
2023-01-12T01:46:40.349Z,8.84
2023-01-12T01:47:39.878Z,8.81
2023-01-12T01:48:37.063Z,8.84
2023-01-12T01:49:37.131Z,8.89
2023-01-12T01:50:38.131Z,8.84
2023-01-12T01:51:40.121Z,8.9
2023-01-12T01:52:37.104Z,8.81
2023-01-12T01:53:37.092Z,8.78
2023-01-12T01:54:37.109Z,8.75
2023-01-12T01:55:37.108Z,8.86
2023-01-12T01:56:37.100Z,8.84
2023-01-12T01:57:39.867Z,8.81
2023-01-12T01:58:38.154Z,8.84
2023-01-12T01:59:37.085Z,8.86
2023-01-12T02:00:37.118Z,8.77
2023-01-12T02:01:37.568Z,8.82
2023-01-12T02:02:40.125Z,8.79
2023-01-12T02:03:41.222Z,8.86
2023-01-12T02:04:37.144Z,8.78
2023-01-12T02:05:37.108Z,8.78
2023-01-12T02:06:37.115Z,8.84
2023-01-12T02:07:37.075Z,8.78
2023-01-12T02:08:40.090Z,8.75
2023-01-12T02:09:37.103Z,8.78
2023-01-12T02:10:37.139Z,8.86
2023-01-12T02:11:37.155Z,8.87
2023-01-12T02:12:37.183Z,8.84
2023-01-12T02:13:39.912Z,8.82
2023-01-12T02:14:37.108Z,8.81
2023-01-12T02:15:39.583Z,8.77
2023-01-12T02:16:37.189Z,8.78
2023-01-12T02:17:37.128Z,8.87
2023-01-12T02:18:37.221Z,8.77
2023-01-12T02:19:40.141Z,8.82
2023-01-12T02:20:37.224Z,8.87
2023-01-12T02:21:37.099Z,8.86
2023-01-12T02:22:37.181Z,8.75
2023-01-12T02:23:37.138Z,8.84
2023-01-12T02:24:39.972Z,8.72
2023-01-12T02:25:37.186Z,8.78
2023-01-12T02:26:37.320Z,8.66
2023-01-12T02:27:37.124Z,8.74
2023-01-12T02:28:38.122Z,8.72
2023-01-12T02:29:37.162Z,8.57
2023-01-12T02:30:37.237Z,8.64
2023-01-12T02:31:37.335Z,8.6
2023-01-12T02:32:37.172Z,8.63
2023-01-12T02:33:37.172Z,8.66
2023-01-12T02:34:37.160Z,8.54
2023-01-12T02:35:40.328Z,8.66
2023-01-12T02:36:37.124Z,8.53
2023-01-12T02:37:37.127Z,8.56
2023-01-12T02:38:37.123Z,8.63
2023-01-12T02:39:38.976Z,8.5
2023-01-12T02:40:37.189Z,8.49
2023-01-12T02:41:42.669Z,8.56
2023-01-12T02:42:37.149Z,8.53
2023-01-12T02:43:37.131Z,8.46
2023-01-12T02:44:37.195Z,8.41
2023-01-12T02:45:37.201Z,8.36
2023-01-12T02:46:40.346Z,8.41
2023-01-12T02:47:37.169Z,8.38
2023-01-12T02:48:37.258Z,8.36
2023-01-12T02:49:37.145Z,8.39
2023-01-12T02:50:37.297Z,8.32
2023-01-12T02:51:37.143Z,8.26
2023-01-12T02:52:38.195Z,8.34
2023-01-12T02:53:37.148Z,8.39
2023-01-12T02:54:37.207Z,8.28
2023-01-12T02:55:37.183Z,8.31
2023-01-12T02:56:37.192Z,8.28
2023-01-12T02:58:37.165Z,8.35
2023-01-12T02:59:37.180Z,8.2
2023-01-12T03:00:37.296Z,8.24
2023-01-12T03:01:37.617Z,8.26
2023-01-12T03:02:37.182Z,8.2
2023-01-12T03:03:37.165Z,8.26
2023-01-12T03:04:37.211Z,8.27
2023-01-12T03:05:37.217Z,8.17
2023-01-12T03:06:37.160Z,8.27
2023-01-12T03:07:37.170Z,8.2
2023-01-12T03:08:40.316Z,8.17
2023-01-12T03:09:37.186Z,8.23
2023-01-12T03:10:37.207Z,8.28
2023-01-12T03:11:37.198Z,8.14
2023-01-12T03:12:37.191Z,8.06
2023-01-12T03:13:38.240Z,8.06
2023-01-12T03:14:37.183Z,8.11
2023-01-12T03:15:37.206Z,8.14
2023-01-12T03:16:37.273Z,8.14
2023-01-12T03:17:37.279Z,8.2
2023-01-12T03:18:37.222Z,8.18
2023-01-12T03:19:40.041Z,8.09
2023-01-12T03:20:37.229Z,8.13
2023-01-12T03:21:37.208Z,8.13
2023-01-12T03:22:39.549Z,8.08
2023-01-12T03:23:37.194Z,8.05
2023-01-12T03:24:37.210Z,7.98
2023-01-12T03:25:37.230Z,8.05
2023-01-12T03:26:40.320Z,7.98
2023-01-12T03:27:37.224Z,7.91
2023-01-12T03:28:37.351Z,7.88
2023-01-12T03:29:37.291Z,7.98
2023-01-12T03:30:40.001Z,7.88
2023-01-12T03:31:37.426Z,7.9
2023-01-12T03:32:37.238Z,7.93
2023-01-12T03:33:37.243Z,7.95
2023-01-12T03:34:37.256Z,7.93
2023-01-12T03:35:37.232Z,7.93
2023-01-12T03:36:37.321Z,7.88
2023-01-12T03:37:37.229Z,7.9
2023-01-12T03:38:37.235Z,7.91
2023-01-12T03:39:37.343Z,7.85
2023-01-12T03:40:37.245Z,7.84
2023-01-12T03:41:37.214Z,7.83
2023-01-12T03:42:37.225Z,7.93
2023-01-12T03:43:37.229Z,7.85
2023-01-12T03:44:37.221Z,7.87
2023-01-12T03:45:37.299Z,7.84
2023-01-12T03:46:37.516Z,7.84
2023-01-12T03:47:37.232Z,7.88
2023-01-12T03:48:37.238Z,7.8
2023-01-12T03:49:37.274Z,7.81
2023-01-12T03:50:37.260Z,7.85
2023-01-12T03:51:37.235Z,7.83
2023-01-12T03:52:37.272Z,7.88
2023-01-12T03:53:37.251Z,7.84
2023-01-12T03:54:37.321Z,7.88
2023-01-12T03:55:37.264Z,7.83
2023-01-12T03:56:37.252Z,7.91
2023-01-12T03:57:37.221Z,7.78
2023-01-12T03:58:37.292Z,7.8
2023-01-12T03:59:37.262Z,7.83
2023-01-12T04:00:37.343Z,7.84
2023-01-12T04:01:37.864Z,7.8
2023-01-12T04:02:40.069Z,7.87
2023-01-12T04:03:37.520Z,7.81
2023-01-12T04:04:37.314Z,7.87
2023-01-12T04:05:37.319Z,7.83
2023-01-12T04:06:37.243Z,7.83
2023-01-12T04:07:37.262Z,7.8
2023-01-12T04:08:37.310Z,7.85
2023-01-12T04:09:37.266Z,7.78
2023-01-12T04:10:37.316Z,7.83
2023-01-12T04:11:37.267Z,7.83
2023-01-12T04:12:37.298Z,7.87
2023-01-12T04:13:40.279Z,7.77
2023-01-12T04:14:37.262Z,7.85
2023-01-12T04:15:37.291Z,7.81
2023-01-12T04:16:37.457Z,7.85
2023-01-12T04:17:37.279Z,7.85
2023-01-12T04:18:37.432Z,7.81
2023-01-12T04:19:37.265Z,7.93
2023-01-12T04:20:37.406Z,7.84
2023-01-12T04:21:37.291Z,7.85
2023-01-12T04:22:37.302Z,7.87
2023-01-12T04:23:37.263Z,7.88
2023-01-12T04:24:40.433Z,7.91
2023-01-12T04:25:37.466Z,7.83
2023-01-12T04:26:37.299Z,7.84
2023-01-12T04:27:37.268Z,7.88
2023-01-12T04:28:37.281Z,7.9
2023-01-12T04:29:40.406Z,7.9
2023-01-12T04:30:37.305Z,7.87
2023-01-12T04:31:37.545Z,7.81
2023-01-12T04:32:37.302Z,7.83
2023-01-12T04:33:37.314Z,7.81
2023-01-12T04:34:37.276Z,7.87
2023-01-12T04:35:40.221Z,8.01
2023-01-12T04:36:37.303Z,7.8
2023-01-12T04:37:37.395Z,7.85
2023-01-12T04:38:37.312Z,7.9
2023-01-12T04:39:37.302Z,7.96
2023-01-12T04:40:40.163Z,7.96
2023-01-12T04:41:37.273Z,7.88
2023-01-12T04:42:37.380Z,7.91
2023-01-12T04:43:37.325Z,7.95
2023-01-12T04:44:37.323Z,8.02
2023-01-12T04:45:37.584Z,7.87
2023-01-12T04:46:37.308Z,7.91
2023-01-12T04:47:37.329Z,7.81
2023-01-12T04:48:37.356Z,7.91
2023-01-12T04:49:37.339Z,7.91
2023-01-12T04:50:37.333Z,7.91
2023-01-12T04:51:40.097Z,7.9
2023-01-12T04:52:37.326Z,7.85
2023-01-12T04:53:37.575Z,7.81
2023-01-12T04:54:37.291Z,7.96
2023-01-12T04:55:37.402Z,7.99
2023-01-12T04:56:37.346Z,7.91
2023-01-12T04:57:37.325Z,8.02
2023-01-12T04:58:37.362Z,8.05
2023-01-12T04:59:37.323Z,8.05
2023-01-12T05:00:37.331Z,8.05
2023-01-12T05:01:37.744Z,8.06
2023-01-12T05:02:40.336Z,8.08
2023-01-12T05:03:37.333Z,8.09
2023-01-12T05:04:37.449Z,8.14
2023-01-12T05:05:37.374Z,8.16
2023-01-12T05:06:37.339Z,8.2
2023-01-12T05:07:37.350Z,8.18
2023-01-12T05:08:37.339Z,8.18
2023-01-12T05:09:37.360Z,8.14
2023-01-12T05:10:37.335Z,8.24
2023-01-12T05:11:37.388Z,8.24
2023-01-12T05:12:40.747Z,8.24
2023-01-12T05:13:40.484Z,8.27
2023-01-12T05:14:37.345Z,8.26
2023-01-12T05:15:37.333Z,8.2
2023-01-12T05:16:37.564Z,8.24
2023-01-12T05:17:37.476Z,8.26
2023-01-12T05:18:37.353Z,8.32
2023-01-12T05:19:37.337Z,8.31
2023-01-12T05:20:37.345Z,8.24
2023-01-12T05:21:37.884Z,8.26
2023-01-12T05:22:37.370Z,8.35
2023-01-12T05:23:37.358Z,8.28
2023-01-12T05:24:40.178Z,8.26
2023-01-12T05:25:37.351Z,8.38
2023-01-12T05:26:37.372Z,8.35
2023-01-12T05:27:37.345Z,8.32
2023-01-12T05:28:37.380Z,8.41
2023-01-12T05:29:37.354Z,8.44
2023-01-12T05:30:37.589Z,8.41
2023-01-12T05:31:37.351Z,8.44
2023-01-12T05:32:40.527Z,8.46
2023-01-12T05:33:37.361Z,8.38
2023-01-12T05:34:37.401Z,8.44
2023-01-12T05:35:40.423Z,8.45
2023-01-12T05:36:37.461Z,8.5
2023-01-12T05:37:37.395Z,8.41
2023-01-12T05:38:37.352Z,8.5
2023-01-12T05:39:37.355Z,8.59
2023-01-12T05:40:37.402Z,8.56
2023-01-12T05:41:37.383Z,8.49
2023-01-12T05:42:37.416Z,8.52
2023-01-12T05:43:40.112Z,8.53
2023-01-12T05:44:37.430Z,8.5
2023-01-12T05:45:37.395Z,8.52
2023-01-12T05:46:40.203Z,8.63
2023-01-12T05:47:37.403Z,8.63
2023-01-12T05:48:37.383Z,8.6
2023-01-12T05:49:37.419Z,8.68
2023-01-12T05:50:37.450Z,8.6
2023-01-12T05:51:37.460Z,8.69
2023-01-12T05:52:37.407Z,8.72
2023-01-12T05:53:37.412Z,8.71
2023-01-12T05:54:37.429Z,8.72
2023-01-12T05:55:38.525Z,8.74
2023-01-12T05:56:37.452Z,8.68
2023-01-12T05:57:40.523Z,8.79
2023-01-12T05:58:38.410Z,8.78
2023-01-12T05:59:37.403Z,8.77
2023-01-12T06:00:37.474Z,8.77
2023-01-12T06:01:37.431Z,8.74
2023-01-12T06:02:37.636Z,8.69
2023-01-12T06:03:37.402Z,8.78
2023-01-12T06:04:37.546Z,8.84
2023-01-12T06:05:37.425Z,8.75
2023-01-12T06:06:37.631Z,8.77
2023-01-12T06:07:37.422Z,8.81
2023-01-12T06:08:37.454Z,8.78
2023-01-12T06:09:37.453Z,8.78
2023-01-12T06:10:37.424Z,8.86
2023-01-12T06:11:37.456Z,8.84
2023-01-12T06:12:37.451Z,8.9
2023-01-12T06:13:37.403Z,8.9
2023-01-12T06:14:37.474Z,8.86
2023-01-12T06:15:37.723Z,8.86
2023-01-12T06:16:37.489Z,8.84
2023-01-12T06:17:37.439Z,8.89
2023-01-12T06:18:37.430Z,8.86
2023-01-12T06:19:37.414Z,8.93
2023-01-12T06:20:37.416Z,8.9
2023-01-12T06:21:37.459Z,8.84
2023-01-12T06:22:37.432Z,8.82
2023-01-12T06:23:40.149Z,8.79
2023-01-12T06:24:37.446Z,8.78
2023-01-12T06:25:37.506Z,8.87
2023-01-12T06:26:38.509Z,8.84
2023-01-12T06:27:37.441Z,8.84
2023-01-12T06:28:37.710Z,8.86
2023-01-12T06:29:40.590Z,8.86
2023-01-12T06:30:37.509Z,8.84
2023-01-12T06:31:37.578Z,8.87
2023-01-12T06:32:38.327Z,8.87
2023-01-12T06:33:37.614Z,8.89
2023-01-12T06:34:37.448Z,8.87
2023-01-12T06:35:38.512Z,8.86
2023-01-12T06:36:37.559Z,8.92
2023-01-12T06:37:37.490Z,8.84
2023-01-12T06:38:37.497Z,8.87
2023-01-12T06:39:37.526Z,8.82
2023-01-12T06:40:41.360Z,8.9
2023-01-12T06:41:37.560Z,8.9
2023-01-12T06:42:37.507Z,8.79
2023-01-12T06:43:37.471Z,8.9
2023-01-12T06:44:37.501Z,8.89
2023-01-12T06:45:40.535Z,8.9
2023-01-12T06:46:37.757Z,8.87
2023-01-12T06:47:37.505Z,8.89
2023-01-12T06:48:43.502Z,8.86
2023-01-12T06:49:37.477Z,8.9
2023-01-12T06:50:37.483Z,8.9
2023-01-12T06:51:40.525Z,8.86
2023-01-12T06:52:37.473Z,8.96
2023-01-12T06:53:37.536Z,8.97
2023-01-12T06:54:37.470Z,8.93
2023-01-12T06:55:37.521Z,8.89
2023-01-12T06:56:38.462Z,8.89
2023-01-12T06:57:37.490Z,8.95
2023-01-12T06:58:37.495Z,8.92
2023-01-12T06:59:38.952Z,8.96
2023-01-12T07:00:37.517Z,8.96
2023-01-12T07:01:37.873Z,9
2023-01-12T07:02:40.534Z,8.93
2023-01-12T07:03:37.512Z,9.16
2023-01-12T07:04:37.746Z,9.05
2023-01-12T07:05:37.515Z,9.12
2023-01-12T07:06:37.528Z,9.03
2023-01-12T07:07:42.504Z,9.08
2023-01-12T07:08:37.546Z,9.05
2023-01-12T07:09:37.482Z,8.96
2023-01-12T07:10:37.548Z,9.08
2023-01-12T07:11:37.531Z,9.05
2023-01-12T07:12:37.553Z,9.08
2023-01-12T07:13:37.585Z,9.03
2023-01-12T07:14:37.515Z,9.09
2023-01-12T07:15:40.778Z,9.15
2023-01-12T07:16:37.531Z,9.05
2023-01-12T07:17:37.536Z,9.11
2023-01-12T07:18:40.578Z,9.16
2023-01-12T07:19:37.525Z,9.13
2023-01-12T07:20:37.660Z,9.11
2023-01-12T07:21:37.563Z,9.18
2023-01-12T07:22:40.024Z,9.19
2023-01-12T07:23:37.511Z,9.13
2023-01-12T07:24:37.552Z,9.12
2023-01-12T07:25:37.548Z,9.13
2023-01-12T07:26:37.560Z,9.21
2023-01-12T07:27:37.521Z,9.12
2023-01-12T07:28:37.547Z,9.16
2023-01-12T07:29:40.327Z,9.15
2023-01-12T07:30:37.708Z,9.16
2023-01-12T07:31:37.610Z,9.12
2023-01-12T07:32:37.516Z,9.13
2023-01-12T07:33:37.543Z,9.13
2023-01-12T07:34:37.539Z,9.11
2023-01-12T07:35:37.566Z,9.16
2023-01-12T07:36:38.625Z,9.15
2023-01-12T07:37:37.546Z,9.18
2023-01-12T07:38:40.575Z,9.18
2023-01-12T07:39:40.276Z,9.11
2023-01-12T07:40:40.338Z,9.13
2023-01-12T07:41:37.591Z,9.21
2023-01-12T07:42:40.597Z,9.19
2023-01-12T07:43:37.571Z,9.22
2023-01-12T07:44:37.720Z,9.16
2023-01-12T07:45:37.584Z,9.18
2023-01-12T07:46:37.823Z,9.19
2023-01-12T07:47:37.598Z,9.26
2023-01-12T07:48:37.600Z,9.24
2023-01-12T07:49:37.566Z,9.27
2023-01-12T07:50:37.575Z,9.29
2023-01-12T07:51:39.134Z,9.26
2023-01-12T07:52:37.622Z,9.33
2023-01-12T07:53:38.618Z,9.22
2023-01-12T07:54:37.600Z,9.36
2023-01-12T07:55:37.609Z,9.27
2023-01-12T07:56:37.577Z,9.3
2023-01-12T07:57:37.582Z,9.27
2023-01-12T07:58:37.561Z,9.34
2023-01-12T07:59:37.583Z,9.39
2023-01-12T08:00:37.634Z,9.24
2023-01-12T08:01:38.247Z,9.37
2023-01-12T08:02:40.429Z,9.26
2023-01-12T08:03:37.625Z,9.47
2023-01-12T08:04:37.602Z,9.39
2023-01-12T08:05:37.962Z,9.4
2023-01-12T08:06:37.597Z,9.42
2023-01-12T08:07:37.572Z,9.42
2023-01-12T08:08:37.624Z,9.59
2023-01-12T08:09:37.598Z,9.72
2023-01-12T08:10:37.631Z,9.81
2023-01-12T08:11:38.632Z,9.8
2023-01-12T08:12:37.650Z,9.77
2023-01-12T08:13:40.656Z,9.77
2023-01-12T08:14:37.581Z,9.64
2023-01-12T08:15:37.636Z,9.69
2023-01-12T08:16:37.776Z,9.74
2023-01-12T08:17:37.636Z,9.7
2023-01-12T08:18:37.778Z,9.72
2023-01-12T08:19:37.650Z,9.7
2023-01-12T08:20:37.786Z,9.62
2023-01-12T08:21:37.612Z,9.63
2023-01-12T08:22:37.628Z,9.59
2023-01-12T08:23:37.623Z,9.59
2023-01-12T08:24:37.869Z,9.55
2023-01-12T08:25:37.647Z,9.66
2023-01-12T08:26:37.632Z,9.64
2023-01-12T08:27:37.627Z,9.66
2023-01-12T08:28:37.610Z,9.66
2023-01-12T08:29:37.838Z,9.54
2023-01-12T08:30:37.642Z,9.54
2023-01-12T08:31:37.663Z,9.7
2023-01-12T08:32:37.658Z,9.69
2023-01-12T08:33:37.627Z,9.67
2023-01-12T08:34:37.644Z,9.64
2023-01-12T08:35:37.650Z,9.69
2023-01-12T08:36:37.614Z,9.72
2023-01-12T08:37:37.722Z,9.67
2023-01-12T08:38:37.655Z,9.73
2023-01-12T08:39:37.668Z,9.54
2023-01-12T08:40:37.695Z,9.67
2023-01-12T08:41:37.708Z,9.69
2023-01-12T08:42:37.642Z,9.73
2023-01-12T08:43:37.701Z,9.69
2023-01-12T08:44:37.652Z,9.62
2023-01-12T08:45:38.681Z,9.72
2023-01-12T08:46:37.831Z,9.7
2023-01-12T08:47:37.634Z,9.7
2023-01-12T08:48:37.683Z,9.74
2023-01-12T08:49:37.747Z,9.74
2023-01-12T08:50:37.655Z,9.7
2023-01-12T08:51:37.878Z,9.73
2023-01-12T08:52:37.689Z,9.7
2023-01-12T08:53:37.769Z,9.67
2023-01-12T08:54:40.512Z,9.7
2023-01-12T08:55:37.827Z,9.69
2023-01-12T08:56:40.461Z,9.66
2023-01-12T08:57:37.695Z,9.69
2023-01-12T08:58:37.669Z,9.74
2023-01-12T08:59:37.696Z,9.81
2023-01-12T09:00:37.855Z,9.67
2023-01-12T09:01:38.294Z,9.77
2023-01-12T09:02:37.968Z,9.73
2023-01-12T09:03:37.737Z,9.76
2023-01-12T09:04:37.735Z,9.74
2023-01-12T09:05:37.684Z,9.84
2023-01-12T09:06:37.667Z,9.73
2023-01-12T09:07:40.571Z,9.81
2023-01-12T09:08:37.667Z,9.77
2023-01-12T09:09:37.759Z,9.82
2023-01-12T09:10:37.688Z,9.8
2023-01-12T09:11:40.701Z,9.82
2023-01-12T09:12:38.570Z,9.8
2023-01-12T09:13:37.740Z,9.82
2023-01-12T09:14:37.709Z,9.82
2023-01-12T09:15:37.700Z,9.88
2023-01-12T09:16:37.869Z,9.77
2023-01-12T09:17:37.745Z,9.84
2023-01-12T09:18:40.764Z,9.8
2023-01-12T09:19:37.769Z,9.8
2023-01-12T09:20:37.751Z,9.81
2023-01-12T09:21:37.734Z,9.85
2023-01-12T09:22:37.745Z,9.73
2023-01-12T09:23:40.636Z,9.87
2023-01-12T09:24:37.688Z,9.85
2023-01-12T09:25:39.940Z,9.91
2023-01-12T09:26:37.697Z,9.87
2023-01-12T09:27:37.793Z,9.88
2023-01-12T09:28:37.750Z,9.95
2023-01-12T09:29:40.520Z,9.87
2023-01-12T09:30:37.738Z,9.88
2023-01-12T09:31:37.877Z,9.85
2023-01-12T09:32:41.659Z,9.92
2023-01-12T09:33:37.732Z,9.95
2023-01-12T09:34:40.738Z,10.09
2023-01-12T09:35:37.739Z,9.97
2023-01-12T09:36:37.785Z,10.06
2023-01-12T09:37:37.764Z,10.02
2023-01-12T09:38:37.995Z,9.91
2023-01-12T09:39:37.795Z,9.99
2023-01-12T09:40:40.711Z,10.03
2023-01-12T09:41:37.766Z,10.03
2023-01-12T09:42:37.775Z,10.07
2023-01-12T09:43:37.784Z,10.07
2023-01-12T09:44:37.796Z,9.97
2023-01-12T09:45:40.699Z,9.95
2023-01-12T09:46:37.780Z,10.06
2023-01-12T09:47:37.773Z,10.1
2023-01-12T09:48:37.787Z,10.05
2023-01-12T09:49:37.944Z,10.03
2023-01-12T09:50:37.768Z,10.12
2023-01-12T09:51:37.755Z,10.1
2023-01-12T09:52:37.794Z,10.1
2023-01-12T09:53:40.492Z,10.15
2023-01-12T09:54:37.781Z,10.13
2023-01-12T09:55:37.796Z,10.09
2023-01-12T09:56:40.535Z,10.2
2023-01-12T09:57:37.791Z,10.18
2023-01-12T09:58:37.804Z,10.06
2023-01-12T09:59:37.791Z,10.13
2023-01-12T10:00:38.016Z,10.12
2023-01-12T10:01:37.917Z,10.12
2023-01-12T10:02:38.363Z,10.2
2023-01-12T10:03:38.425Z,10.18
2023-01-12T10:04:37.789Z,10.07
2023-01-12T10:05:44.308Z,10.27
2023-01-12T10:06:37.773Z,10.23
2023-01-12T10:07:42.140Z,10.1
2023-01-12T10:08:38.853Z,10.12
2023-01-12T10:09:37.793Z,10.17
2023-01-12T10:10:37.801Z,10.17
2023-01-12T10:11:37.839Z,10.15
2023-01-12T10:12:37.798Z,10.18
2023-01-12T10:13:37.878Z,10.3
2023-01-12T10:14:37.805Z,10.31
2023-01-12T10:15:37.814Z,10.33
2023-01-12T10:16:38.002Z,10.25
2023-01-12T10:17:53.908Z,10.25
2023-01-12T10:18:40.896Z,10.25
2023-01-12T10:19:37.837Z,10.41
2023-01-12T10:20:37.811Z,10.34
2023-01-12T10:21:37.842Z,10.36
2023-01-12T10:22:38.064Z,10.33
2023-01-12T10:23:37.857Z,10.39
2023-01-12T10:24:37.816Z,10.38
2023-01-12T10:25:37.821Z,10.48
2023-01-12T10:26:37.833Z,10.38
2023-01-12T10:27:38.875Z,10.41
2023-01-12T10:28:37.832Z,10.45
2023-01-12T10:29:40.591Z,10.38
2023-01-12T10:30:37.836Z,10.51
2023-01-12T10:31:38.000Z,10.45
2023-01-12T10:32:46.186Z,10.46
2023-01-12T10:33:37.864Z,10.46
2023-01-12T10:34:37.822Z,10.55
2023-01-12T10:35:37.847Z,10.57
2023-01-12T10:36:37.834Z,10.59
2023-01-12T10:37:37.839Z,10.57
2023-01-12T10:38:37.886Z,10.48
2023-01-12T10:39:38.080Z,10.46
2023-01-12T10:40:40.690Z,10.53
2023-01-12T10:41:37.845Z,10.51
2023-01-12T10:42:37.943Z,10.43
2023-01-12T10:43:37.875Z,10.53
2023-01-12T10:44:37.831Z,10.48
2023-01-12T10:45:38.003Z,10.55
2023-01-12T10:46:37.848Z,10.55
2023-01-12T10:47:37.829Z,10.59
2023-01-12T10:48:37.932Z,10.59
2023-01-12T10:49:38.935Z,10.62
2023-01-12T10:50:37.889Z,10.64
2023-01-12T10:51:40.811Z,10.55
2023-01-12T10:52:37.862Z,10.61
2023-01-12T10:53:37.861Z,10.61
2023-01-12T10:54:37.870Z,10.57
2023-01-12T10:55:37.904Z,10.46
2023-01-12T10:56:37.939Z,10.59
2023-01-12T10:57:37.887Z,10.65
2023-01-12T10:58:37.893Z,10.61
2023-01-12T10:59:38.020Z,10.65
2023-01-12T11:00:37.903Z,10.62
2023-01-12T11:01:38.251Z,10.65
2023-01-12T11:02:40.735Z,10.51
2023-01-12T11:03:37.873Z,10.65
2023-01-12T11:04:37.899Z,10.59
2023-01-12T11:05:37.995Z,10.61
2023-01-12T11:06:37.895Z,10.65
2023-01-12T11:07:37.976Z,10.62
2023-01-12T11:08:37.921Z,10.58
2023-01-12T11:09:37.937Z,10.62
2023-01-12T11:10:37.917Z,10.61
2023-01-12T11:11:37.983Z,10.64
2023-01-12T11:12:37.920Z,10.62
2023-01-12T11:13:37.923Z,10.65
2023-01-12T11:14:37.894Z,10.59
2023-01-12T11:15:37.957Z,10.62
2023-01-12T11:16:38.033Z,10.58
2023-01-12T11:17:37.905Z,10.55
2023-01-12T11:18:38.978Z,10.55
2023-01-12T11:19:37.886Z,10.53
2023-01-12T11:20:37.925Z,10.59
2023-01-12T11:21:37.895Z,10.55
2023-01-12T11:22:38.024Z,10.51
2023-01-12T11:23:40.676Z,10.46
2023-01-12T11:24:37.882Z,10.51
2023-01-12T11:25:37.898Z,10.57
2023-01-12T11:26:37.920Z,10.45
2023-01-12T11:27:38.038Z,10.55
2023-01-12T11:28:37.933Z,10.53
2023-01-12T11:29:37.899Z,10.53
2023-01-12T11:30:38.089Z,10.53
2023-01-12T11:31:37.952Z,10.64
2023-01-12T11:32:37.908Z,10.58
2023-01-12T11:33:37.952Z,10.45
2023-01-12T11:34:40.753Z,10.49
2023-01-12T11:35:37.913Z,10.42
2023-01-12T11:36:37.937Z,10.49
2023-01-12T11:37:37.913Z,10.42
2023-01-12T11:38:37.946Z,10.46
2023-01-12T11:39:40.803Z,10.42
2023-01-12T11:40:37.939Z,10.36
2023-01-12T11:41:37.917Z,10.46
2023-01-12T11:42:37.944Z,10.46
2023-01-12T11:43:37.997Z,10.38
2023-01-12T11:44:37.930Z,10.55
2023-01-12T11:45:40.724Z,10.55
2023-01-12T11:46:37.929Z,10.48
2023-01-12T11:47:38.898Z,10.41
2023-01-12T11:48:37.951Z,10.51
2023-01-12T11:49:37.932Z,10.49
2023-01-12T11:50:40.733Z,10.46
2023-01-12T11:51:37.943Z,10.57
2023-01-12T11:52:37.975Z,10.58
2023-01-12T11:53:39.101Z,10.46
2023-01-12T11:54:37.943Z,10.45
2023-01-12T11:55:37.953Z,10.59
2023-01-12T11:56:40.786Z,10.64
2023-01-12T11:57:37.959Z,10.57
2023-01-12T11:58:37.993Z,10.58
2023-01-12T11:59:39.303Z,10.67
2023-01-12T12:00:37.991Z,10.61
2023-01-12T12:01:41.042Z,10.58
2023-01-12T12:02:38.265Z,10.69
2023-01-12T12:03:38.143Z,10.65
2023-01-12T12:04:37.999Z,10.64
2023-01-12T12:05:39.408Z,10.65
2023-01-12T12:06:37.964Z,10.69
2023-01-12T12:07:40.866Z,10.65
2023-01-12T12:08:38.101Z,10.75
2023-01-12T12:09:37.958Z,10.62
2023-01-12T12:10:38.004Z,10.71
2023-01-12T12:11:39.369Z,10.69
2023-01-12T12:12:40.831Z,10.68
2023-01-12T12:13:38.016Z,10.75
2023-01-12T12:14:38.072Z,10.77
2023-01-12T12:15:38.183Z,10.69
2023-01-12T12:16:38.003Z,10.79
2023-01-12T12:17:39.292Z,10.72
2023-01-12T12:18:40.876Z,10.68
2023-01-12T12:19:38.013Z,10.8
2023-01-12T12:20:37.970Z,10.72
2023-01-12T12:21:37.981Z,10.68
2023-01-12T12:22:38.008Z,10.79
2023-01-12T12:23:43.704Z,10.76
2023-01-12T12:24:38.007Z,10.72
2023-01-12T12:25:38.005Z,10.8
2023-01-12T12:26:38.008Z,10.77
2023-01-12T12:27:38.028Z,10.83
2023-01-12T12:28:38.021Z,10.95
2023-01-12T12:29:39.387Z,10.89
2023-01-12T12:30:41.018Z,10.83
2023-01-12T12:31:38.003Z,10.87
2023-01-12T12:32:41.091Z,10.8
2023-01-12T12:33:38.059Z,10.8
2023-01-12T12:34:41.102Z,10.95
2023-01-12T12:35:39.295Z,10.83
2023-01-12T12:36:38.017Z,10.87
2023-01-12T12:37:38.012Z,10.89
2023-01-12T12:38:39.088Z,10.95
2023-01-12T12:39:38.041Z,10.9
2023-01-12T12:40:38.026Z,10.86
2023-01-12T12:41:38.922Z,10.75
2023-01-12T12:42:38.027Z,10.92
2023-01-12T12:43:38.219Z,10.86
2023-01-12T12:44:38.034Z,10.9
2023-01-12T12:45:41.151Z,10.92
2023-01-12T12:46:38.241Z,10.82
2023-01-12T12:47:39.302Z,10.9
2023-01-12T12:48:37.915Z,10.87
2023-01-12T12:49:38.154Z,10.83
2023-01-12T12:50:38.064Z,10.86
2023-01-12T12:51:38.024Z,10.83
2023-01-12T12:52:38.051Z,10.94
2023-01-12T12:53:39.239Z,10.98
2023-01-12T12:54:39.053Z,10.94
2023-01-12T12:55:38.045Z,11
2023-01-12T12:56:40.921Z,10.92
2023-01-12T12:57:38.059Z,10.94
2023-01-12T12:58:38.039Z,10.98
2023-01-12T12:59:38.045Z,11.05
2023-01-12T13:00:38.345Z,11.07
2023-01-12T13:01:38.420Z,11.13
2023-01-12T13:02:38.190Z,11.15
2023-01-12T13:03:38.102Z,11.12
2023-01-12T13:04:38.041Z,11.05
2023-01-12T13:05:38.046Z,11.04
2023-01-12T13:06:38.135Z,11.15
2023-01-12T13:07:40.869Z,11.08
2023-01-12T13:08:38.061Z,11.04
2023-01-12T13:09:38.049Z,11.13
2023-01-12T13:10:38.064Z,11.07
2023-01-12T13:11:38.118Z,11.04
2023-01-12T13:12:38.093Z,11.04
2023-01-12T13:13:38.083Z,11
2023-01-12T13:14:38.079Z,11.04